createdAt,value
2018-11-29T00:04:28.173Z,102281.59
2018-11-29T00:09:46.628Z,102270.94
2018-11-29T00:14:49.229Z,102279.03
2018-11-29T00:19:51.798Z,102275.63
2018-11-29T00:24:54.568Z,102280.29
2018-11-29T00:29:57.119Z,102281.59
2018-11-29T00:34:59.696Z,102280.28
2018-11-29T00:40:02.698Z,102261.94
2018-11-29T00:45:08.314Z,102272.59
2018-11-29T00:50:12.264Z,102270.86
2018-11-29T00:55:18.192Z,102278.52
2018-11-29T01:00:23.716Z,102280.69
2018-11-29T01:05:26.320Z,102278.52
2018-11-29T01:10:28.912Z,102261.90
2018-11-29T01:15:31.636Z,102262.72
2018-11-29T01:20:34.228Z,102262.70
2018-11-29T01:25:36.910Z,102274.23
2018-11-29T01:30:39.573Z,102258.03
2018-11-29T01:35:42.164Z,102229.46
2018-11-29T01:40:44.714Z,102230.30
2018-11-29T01:45:47.331Z,102251.17
2018-11-29T01:50:49.937Z,102224.30
2018-11-29T01:55:52.569Z,102210.65
2018-11-29T02:00:55.240Z,102183.77
2018-11-29T02:05:57.885Z,102189.73
2018-11-29T02:11:00.543Z,102185.91
2018-11-29T02:16:03.181Z,102184.62
2018-11-29T02:21:07.197Z,102180.78
2018-11-29T02:26:09.901Z,102159.47
2018-11-29T02:31:12.708Z,102155.61
2018-11-29T02:36:15.318Z,102159.91
2018-11-29T02:41:17.952Z,102168.00
2018-11-29T02:46:20.567Z,102170.98
2018-11-29T02:51:23.176Z,102181.66
2018-11-29T02:56:25.771Z,102174.85
2018-11-29T03:01:28.970Z,102163.32
2018-11-29T03:06:31.605Z,102161.19
2018-11-29T03:11:34.203Z,102159.47
2018-11-29T03:16:36.833Z,102152.67
2018-11-29T03:21:39.420Z,102165.45
2018-11-29T03:26:42.024Z,102150.95
2018-11-29T03:31:44.703Z,102159.48
2018-11-29T03:36:47.583Z,102164.60
2018-11-29T03:41:50.233Z,102150.95
2018-11-29T03:46:52.834Z,102158.63
2018-11-29T03:51:55.478Z,102159.91
2018-11-29T03:56:58.089Z,102156.93
2018-11-29T04:02:00.680Z,102161.20
2018-11-29T04:07:03.280Z,102153.09
2018-11-29T04:12:05.894Z,102139.88
2018-11-29T04:17:08.532Z,102133.91
2018-11-29T04:22:11.155Z,102138.61
2018-11-29T04:27:13.763Z,102160.78
2018-11-29T04:32:16.389Z,102151.39
2018-11-29T04:37:19.087Z,102133.06
2018-11-29T04:42:21.714Z,102133.89
2018-11-29T04:47:24.361Z,102115.16
2018-11-29T04:52:26.947Z,102106.61
2018-11-29T04:57:29.613Z,102109.17
2018-11-29T05:02:32.191Z,102102.77
2018-11-29T05:07:35.057Z,102117.25
2018-11-29T05:12:37.629Z,102104.06
2018-11-29T05:17:40.435Z,102098.92
2018-11-29T05:22:43.117Z,102092.55
2018-11-29T05:27:45.929Z,102092.98
2018-11-29T05:32:48.514Z,102104.48
2018-11-29T05:37:51.253Z,102107.89
2018-11-29T05:42:54.055Z,102118.56
2018-11-29T05:47:57.489Z,102105.75
2018-11-29T05:53:00.101Z,102093.41
2018-11-29T05:58:02.684Z,102082.75
2018-11-29T06:03:05.412Z,102077.64
2018-11-29T06:08:07.996Z,102081.47
2018-11-29T06:13:10.616Z,102090.01
2018-11-29T06:18:13.204Z,102078.90
2018-11-29T06:23:15.824Z,102090.86
2018-11-29T06:28:18.466Z,102108.33
2018-11-29T06:33:21.154Z,102062.72
2018-11-29T06:38:23.785Z,102072.94
2018-11-29T06:43:26.441Z,102078.08
2018-11-29T06:48:29.063Z,102081.45
2018-11-29T06:53:37.453Z,102072.95
2018-11-29T06:58:40.484Z,102084.03
2018-11-29T07:03:43.397Z,102089.16
2018-11-29T07:08:46.081Z,102073.36
2018-11-29T07:13:48.981Z,102067.41
2018-11-29T07:18:51.632Z,102055.45
2018-11-29T07:23:54.479Z,102061.86
2018-11-29T07:28:57.470Z,102093.40
2018-11-29T07:34:00.218Z,102081.48
2018-11-29T07:39:04.046Z,102081.05
2018-11-29T07:44:08.661Z,102062.28
2018-11-29T07:49:11.289Z,102062.70
2018-11-29T07:54:13.916Z,102047.34
2018-11-29T07:59:16.602Z,102037.55
2018-11-29T08:04:19.317Z,102042.23
2018-11-29T08:09:21.917Z,102057.17
2018-11-29T08:14:24.492Z,102039.66
2018-11-29T08:19:27.114Z,102020.45
2018-11-29T08:24:29.713Z,102018.75
2018-11-29T08:29:35.071Z,102024.27
2018-11-29T08:34:34.920Z,102020.37
2018-11-29T08:39:37.546Z,102010.92
2018-11-29T08:44:40.166Z,102018.94
2018-11-29T08:49:42.925Z,102013.81
2018-11-29T08:54:48.426Z,102020.28
2018-11-29T08:59:53.150Z,102007.92
2018-11-29T09:04:56.132Z,102014.76
2018-11-29T09:09:58.945Z,102000.22
2018-11-29T09:15:01.525Z,102007.49
2018-11-29T09:20:07.697Z,102004.45
2018-11-29T09:25:12.889Z,101994.62
2018-11-29T09:30:21.761Z,101984.38
2018-11-29T09:35:24.440Z,101974.94
2018-11-29T09:40:27.107Z,101982.14
2018-11-29T09:45:29.809Z,101965.88
2018-11-29T09:50:32.465Z,101965.45
2018-11-29T09:55:35.094Z,101944.89
2018-11-29T10:00:37.811Z,101932.75
2018-11-29T10:05:42.364Z,101933.49
2018-11-29T10:10:44.969Z,101931.82
2018-11-29T10:15:47.559Z,101922.16
2018-11-29T10:20:50.122Z,101916.07
2018-11-29T10:25:52.730Z,101899.16
2018-11-29T10:30:57.431Z,101905.25
2018-11-29T10:36:00.131Z,101893.27
2018-11-29T10:41:03.048Z,101866.53
2018-11-29T10:46:06.440Z,101863.39
2018-11-29T10:51:09.089Z,101861.20
2018-11-29T10:56:11.698Z,101850.66
2018-11-29T11:01:20.034Z,101869.05
2018-11-29T11:06:22.600Z,101856.61
2018-11-29T11:11:25.245Z,101868.88
2018-11-29T11:16:27.997Z,101850.61
2018-11-29T11:21:30.600Z,101838.61
2018-11-29T11:26:33.237Z,101838.03
2018-11-29T11:31:36.127Z,101832.23
2018-11-29T11:36:38.744Z,101840.39
2018-11-29T11:41:41.431Z,101830.52
2018-11-29T11:46:44.048Z,101806.02
2018-11-29T11:51:46.650Z,101808.88
2018-11-29T11:56:49.349Z,101806.65
2018-11-29T12:01:52.508Z,101806.63
2018-11-29T12:06:55.304Z,101795.70
2018-11-29T12:11:58.029Z,101784.78
2018-11-29T12:17:00.640Z,101782.13
2018-11-29T12:22:03.273Z,101772.68
2018-11-29T12:27:06.213Z,101767.98
2018-11-29T12:32:08.809Z,101750.05
2018-11-29T12:37:11.479Z,101765.03
2018-11-29T12:42:14.133Z,101759.30
2018-11-29T12:47:16.789Z,101754.50
2018-11-29T12:52:19.415Z,101736.98
2018-11-29T12:57:22.081Z,101730.58
2018-11-29T13:02:24.711Z,101741.29
2018-11-29T13:07:27.399Z,101721.45
2018-11-29T13:12:30.065Z,101726.22
2018-11-29T13:17:32.773Z,101728.33
2018-11-29T13:22:35.379Z,101715.73
2018-11-29T13:27:37.984Z,101708.11
2018-11-29T13:32:40.637Z,101706.00
2018-11-29T13:37:46.709Z,101708.66
2018-11-29T13:42:49.719Z,101692.34
2018-11-29T13:47:52.445Z,101694.69
2018-11-29T13:52:55.093Z,101691.70
2018-11-29T13:57:57.689Z,101678.05
2018-11-29T14:03:03.230Z,101669.50
2018-11-29T14:08:07.375Z,101662.28
2018-11-29T14:13:10.001Z,101658.52
2018-11-29T14:18:12.664Z,101659.35
2018-11-29T14:23:15.365Z,101650.78
2018-11-29T14:28:18.077Z,101653.81
2018-11-29T14:33:20.865Z,101663.26
2018-11-29T14:38:23.525Z,101671.38
2018-11-29T14:43:26.178Z,101663.67
2018-11-29T14:48:28.948Z,101652.11
2018-11-29T14:53:31.670Z,101658.19
2018-11-29T14:58:34.209Z,101656.13
2018-11-29T15:03:36.820Z,101648.89
2018-11-29T15:08:39.561Z,101645.02
2018-11-29T15:13:42.198Z,101646.39
2018-11-29T15:18:44.836Z,101651.17
2018-11-29T15:23:47.629Z,101658.13
2018-11-29T15:28:50.350Z,101649.50
2018-11-29T15:33:53.560Z,101663.31
2018-11-29T15:38:56.392Z,101654.41
2018-11-29T15:43:59.049Z,101650.10
2018-11-29T15:49:01.636Z,101660.49
2018-11-29T15:54:04.743Z,101638.19
2018-11-29T15:59:07.368Z,101645.56
2018-11-29T16:04:10.022Z,101642.50
2018-11-29T16:09:12.674Z,101662.45
2018-11-29T16:14:15.313Z,101641.06
2018-11-29T16:19:17.951Z,101661.26
2018-11-29T16:24:20.724Z,101650.59
2018-11-29T16:29:23.329Z,101623.66
2018-11-29T16:34:25.919Z,101648.62
2018-11-29T16:39:28.513Z,101623.98
2018-11-29T16:44:31.140Z,101639.41
2018-11-29T16:49:33.695Z,101612.53
2018-11-29T16:54:36.263Z,101602.76
2018-11-29T16:59:39.030Z,101578.40
2018-11-29T17:04:41.652Z,101590.93
2018-11-29T17:09:45.204Z,101578.92
2018-11-29T17:14:49.244Z,101596.96
2018-11-29T17:19:51.890Z,101575.20
2018-11-29T17:24:54.488Z,101565.85
2018-11-29T17:29:57.108Z,101556.00
2018-11-29T17:34:59.751Z,101554.79
2018-11-29T17:40:02.660Z,101559.17
2018-11-29T17:45:09.921Z,101569.45
2018-11-29T17:50:32.493Z,101572.89
2018-11-29T17:55:35.395Z,101566.46
2018-11-29T18:00:38.184Z,101573.88
2018-11-29T18:05:40.767Z,101555.11
2018-11-29T18:10:43.899Z,101552.06
2018-11-29T18:15:46.534Z,101535.87
2018-11-29T18:20:49.182Z,101541.41
2018-11-29T18:25:51.837Z,101525.24
2018-11-29T18:30:54.590Z,101527.02
2018-11-29T18:35:57.249Z,101524.96
2018-11-29T18:40:59.982Z,101536.13
2018-11-29T18:46:04.500Z,101509.23
2018-11-29T18:51:07.161Z,101509.72
2018-11-29T18:56:09.812Z,101516.99
2018-11-29T19:01:12.369Z,101510.61
2018-11-29T19:06:14.977Z,101512.38
2018-11-29T19:11:17.542Z,101507.32
2018-11-29T19:16:20.203Z,101500.47
2018-11-29T19:21:22.860Z,101504.35
2018-11-29T19:26:25.623Z,101493.28
2018-11-29T19:31:28.285Z,101492.92
2018-11-29T19:36:31.065Z,101496.81
2018-11-29T19:41:33.673Z,101489.55
2018-11-29T19:46:36.387Z,101470.75
2018-11-29T19:51:39.171Z,101475.03
2018-11-29T19:56:42.438Z,101458.81
2018-11-29T20:01:45.131Z,101462.73
2018-11-29T20:06:47.686Z,101471.73
2018-11-29T20:11:50.280Z,101458.55
2018-11-29T20:16:53.768Z,101456.88
2018-11-29T20:21:56.409Z,101456.96
2018-11-29T20:26:58.979Z,101446.73
2018-11-29T20:32:01.606Z,101441.58
2018-11-29T20:37:04.396Z,101433.87
2018-11-29T20:42:07.024Z,101426.61
2018-11-29T20:47:09.762Z,101434.77
2018-11-29T20:52:12.400Z,101432.69
2018-11-29T20:57:15.020Z,101422.48
2018-11-29T21:02:17.666Z,101424.27
2018-11-29T21:07:20.304Z,101406.69
2018-11-29T21:12:22.932Z,101416.09
2018-11-29T21:17:25.596Z,101414.44
2018-11-29T21:22:28.227Z,101399.46
2018-11-29T21:27:30.787Z,101401.20
2018-11-29T21:32:33.408Z,101398.71
2018-11-29T21:37:36.254Z,101403.86
2018-11-29T21:42:39.287Z,101395.73
2018-11-29T21:47:41.913Z,101385.05
2018-11-29T21:52:44.629Z,101379.13
2018-11-29T21:57:47.252Z,101380.81
2018-11-29T22:02:56.805Z,101385.98
2018-11-29T22:07:59.315Z,101371.44
2018-11-29T22:13:01.894Z,101352.69
2018-11-29T22:18:23.128Z,101354.83
2018-11-29T22:23:25.830Z,101362.02
2018-11-29T22:28:29.216Z,101360.73
2018-11-29T22:33:31.836Z,101347.95
2018-11-29T22:38:34.455Z,101334.99
2018-11-29T22:43:37.041Z,101348.78
2018-11-29T22:48:40.054Z,101385.55
2018-11-29T22:53:42.693Z,101399.20
2018-11-29T22:58:45.297Z,101391.88
2018-11-29T23:03:47.889Z,101407.77
2018-11-29T23:08:50.544Z,101416.32
2018-11-29T23:13:53.109Z,101406.48
2018-11-29T23:18:55.764Z,101411.62
2018-11-29T23:23:58.373Z,101427.93
2018-11-29T23:29:00.973Z,101416.34
2018-11-29T23:34:03.651Z,101406.55
2018-11-29T23:39:07.347Z,101386.95
2018-11-29T23:44:09.965Z,101385.70
2018-11-29T23:49:12.551Z,101354.97
2018-11-29T23:54:15.197Z,101345.58
2018-11-29T23:59:17.793Z,101319.58
